Main page
METAR-TAF:

METAR-TAF

Airports :

Córdoba Airport

Córdoba, Spain

latitude: 37-51N, longitude: 004-51W, elevation: 90 m

Current weather observation

The report was made 15 minutes ago, at 22:30 UTC
Wind 1 kt from variable directions
Temperature 10°C
Humidity 100%
Pressure 1027 hPa
Visibility: 6000 m

METAR: LEBA 272230Z AUTO VRB01KT 6000 NCD 10/10 Q1027

Time: 23:45 (22:45 UTC)

Forecast

The report was made 8 hours and 45 minutes ago, at 14:00 UTC
Forecast valid from 27 at 15 UTC to 28 at 15 UTC
Wind 5 kt from the East
Visibility 10 km or more
Few clouds at a height of 2500 ft
Scattered clouds at a height of 3500 ft
Probability 40% :
Temporary
from 28 at 03 UTC to 28 at 10 UTC
Visibility: 0300 m
at a height of 100 ft
fog
Probability 40% :
Temporary
from 28 at 07 UTC to 28 at 11 UTC
Visibility: 1500 m
Broken clouds at a height of 300 ft
patches of fog, mist

TAF: LEBA 271400Z 2715/2815 08005KT 9999 FEW025 SCT035 TX20/2716Z TN11/2806Z PROB40 TEMPO 2803/2810 0300 FG VV001 PROB40 TEMPO 2807/2811 1500 BCFG BR BKN003

Weather observations and forecasts of more than 4000 airports (METAR and TAF reports).

The available stations are represented by yellow and red dots on the map.

Hover mouse over dot to see the name of the station.

Then click to see weather observations and forecasts.

To change the map : click on the green buttons with a black cross to zoom in, on the green button with a dash to zoom out, or on the green arrows for adjacent maps.


METAR-TAF: